sensor_id;sensor_type;location;lat;lon;timestamp;P1;durP1;ratioP1;P2;durP2;ratioP2
15876;SDS011;8037;51.666;7.834;2023-01-26T00:00:44;31.80;;;15.67;;
15876;SDS011;8037;51.666;7.834;2023-01-26T00:03:10;26.37;;;14.77;;
15876;SDS011;8037;51.666;7.834;2023-01-26T00:05:36;26.20;;;13.50;;
15876;SDS011;8037;51.666;7.834;2023-01-26T00:08:02;31.43;;;17.07;;
15876;SDS011;8037;51.666;7.834;2023-01-26T00:10:28;41.40;;;16.90;;
15876;SDS011;8037;51.666;7.834;2023-01-26T00:12:54;29.53;;;15.97;;
15876;SDS011;8037;51.666;7.834;2023-01-26T00:15:20;26.80;;;13.23;;
15876;SDS011;8037;51.666;7.834;2023-01-26T00:17:46;29.03;;;12.10;;
15876;SDS011;8037;51.666;7.834;2023-01-26T00:20:15;33.47;;;14.80;;
15876;SDS011;8037;51.666;7.834;2023-01-26T00:22:41;40.03;;;14.47;;
15876;SDS011;8037;51.666;7.834;2023-01-26T00:25:06;33.30;;;17.03;;
15876;SDS011;8037;51.666;7.834;2023-01-26T00:27:32;34.30;;;13.97;;
15876;SDS011;8037;51.666;7.834;2023-01-26T00:29:58;33.80;;;14.07;;
15876;SDS011;8037;51.666;7.834;2023-01-26T00:32:24;39.07;;;15.20;;
15876;SDS011;8037;51.666;7.834;2023-01-26T00:34:50;27.57;;;14.97;;
15876;SDS011;8037;51.666;7.834;2023-01-26T00:37:16;35.30;;;16.07;;
15876;SDS011;8037;51.666;7.834;2023-01-26T00:39:41;42.33;;;17.83;;
15876;SDS011;8037;51.666;7.834;2023-01-26T00:42:07;28.20;;;11.90;;
15876;SDS011;8037;51.666;7.834;2023-01-26T00:44:38;35.83;;;14.83;;
15876;SDS011;8037;51.666;7.834;2023-01-26T00:47:06;53.27;;;16.40;;
15876;SDS011;8037;51.666;7.834;2023-01-26T00:49:33;41.40;;;16.57;;
15876;SDS011;8037;51.666;7.834;2023-01-26T00:51:59;36.30;;;16.20;;
15876;SDS011;8037;51.666;7.834;2023-01-26T00:54:26;38.30;;;15.43;;
15876;SDS011;8037;51.666;7.834;2023-01-26T00:56:52;29.50;;;13.77;;
15876;SDS011;8037;51.666;7.834;2023-01-26T00:59:17;27.43;;;14.93;;
15876;SDS011;8037;51.666;7.834;2023-01-26T01:01:43;38.13;;;14.97;;
15876;SDS011;8037;51.666;7.834;2023-01-26T01:04:09;41.07;;;14.70;;
15876;SDS011;8037;51.666;7.834;2023-01-26T01:06:35;28.60;;;13.50;;
15876;SDS011;8037;51.666;7.834;2023-01-26T01:09:01;40.90;;;18.60;;
15876;SDS011;8037;51.666;7.834;2023-01-26T01:11:27;36.03;;;14.00;;
15876;SDS011;8037;51.666;7.834;2023-01-26T01:13:53;42.50;;;13.93;;
15876;SDS011;8037;51.666;7.834;2023-01-26T01:16:19;41.40;;;13.90;;
15876;SDS011;8037;51.666;7.834;2023-01-26T01:18:45;38.33;;;16.83;;
15876;SDS011;8037;51.666;7.834;2023-01-26T01:21:12;19.53;;;12.87;;
15876;SDS011;8037;51.666;7.834;2023-01-26T01:23:39;28.60;;;14.10;;
15876;SDS011;8037;51.666;7.834;2023-01-26T01:26:06;34.70;;;16.40;;
15876;SDS011;8037;51.666;7.834;2023-01-26T01:28:32;34.53;;;14.90;;
15876;SDS011;8037;51.666;7.834;2023-01-26T01:31:02;33.67;;;14.40;;
15876;SDS011;8037;51.666;7.834;2023-01-26T01:33:31;35.97;;;14.73;;
15876;SDS011;8037;51.666;7.834;2023-01-26T01:36:01;33.57;;;16.43;;
15876;SDS011;8037;51.666;7.834;2023-01-26T01:38:29;29.50;;;14.67;;
15876;SDS011;8037;51.666;7.834;2023-01-26T01:40:55;32.23;;;15.97;;
15876;SDS011;8037;51.666;7.834;2023-01-26T01:43:21;25.33;;;13.50;;
15876;SDS011;8037;51.666;7.834;2023-01-26T01:45:47;34.37;;;14.70;;
15876;SDS011;8037;51.666;7.834;2023-01-26T01:48:16;31.23;;;14.50;;
15876;SDS011;8037;51.666;7.834;2023-01-26T01:50:48;44.50;;;16.77;;
15876;SDS011;8037;51.666;7.834;2023-01-26T01:53:19;40.53;;;18.70;;
15876;SDS011;8037;51.666;7.834;2023-01-26T01:55:49;37.70;;;15.10;;
15876;SDS011;8037;51.666;7.834;2023-01-26T01:58:19;55.10;;;17.03;;
15876;SDS011;8037;51.666;7.834;2023-01-26T02:00:45;25.43;;;17.17;;
15876;SDS011;8037;51.666;7.834;2023-01-26T02:03:11;29.07;;;14.00;;
15876;SDS011;8037;51.666;7.834;2023-01-26T02:08:17;36.00;;;15.80;;
15876;SDS011;8037;51.666;7.834;2023-01-26T02:10:45;42.60;;;16.60;;
15876;SDS011;8037;51.666;7.834;2023-01-26T02:13:13;24.17;;;14.10;;
15876;SDS011;8037;51.666;7.834;2023-01-26T02:15:41;40.27;;;16.27;;
15876;SDS011;8037;51.666;7.834;2023-01-26T02:18:07;28.03;;;15.40;;
15876;SDS011;8037;51.666;7.834;2023-01-26T02:28:16;27.60;;;15.87;;
15876;SDS011;8037;51.666;7.834;2023-01-26T02:30:42;31.63;;;14.50;;
15876;SDS011;8037;51.666;7.834;2023-01-26T02:33:18;34.07;;;16.40;;
15876;SDS011;8037;51.666;7.834;2023-01-26T02:35:45;24.70;;;11.97;;
15876;SDS011;8037;51.666;7.834;2023-01-26T02:38:11;31.90;;;11.73;;
15876;SDS011;8037;51.666;7.834;2023-01-26T02:43:19;21.37;;;12.70;;
15876;SDS011;8037;51.666;7.834;2023-01-26T02:45:47;25.93;;;13.40;;
15876;SDS011;8037;51.666;7.834;2023-01-26T02:48:12;32.30;;;13.17;;
15876;SDS011;8037;51.666;7.834;2023-01-26T02:50:38;26.10;;;13.83;;
15876;SDS011;8037;51.666;7.834;2023-01-26T02:53:03;22.20;;;11.80;;
15876;SDS011;8037;51.666;7.834;2023-01-26T02:55:29;23.80;;;12.20;;
15876;SDS011;8037;51.666;7.834;2023-01-26T02:57:57;23.37;;;11.83;;
15876;SDS011;8037;51.666;7.834;2023-01-26T03:00:25;28.70;;;13.00;;
15876;SDS011;8037;51.666;7.834;2023-01-26T03:02:56;26.50;;;12.40;;
15876;SDS011;8037;51.666;7.834;2023-01-26T03:05:25;28.27;;;11.20;;
15876;SDS011;8037;51.666;7.834;2023-01-26T03:07:51;22.00;;;13.57;;
15876;SDS011;8037;51.666;7.834;2023-01-26T03:10:17;29.13;;;14.07;;
15876;SDS011;8037;51.666;7.834;2023-01-26T03:12:43;25.80;;;11.50;;
15876;SDS011;8037;51.666;7.834;2023-01-26T03:15:09;24.80;;;12.53;;
15876;SDS011;8037;51.666;7.834;2023-01-26T03:18:05;29.90;;;11.97;;
15876;SDS011;8037;51.666;7.834;2023-01-26T03:21:01;31.07;;;13.67;;
15876;SDS011;8037;51.666;7.834;2023-01-26T03:23:58;26.03;;;12.60;;
15876;SDS011;8037;51.666;7.834;2023-01-26T03:26:43;23.43;;;11.83;;
15876;SDS011;8037;51.666;7.834;2023-01-26T03:29:28;31.43;;;14.40;;
15876;SDS011;8037;51.666;7.834;2023-01-26T03:31:54;21.70;;;12.63;;
15876;SDS011;8037;51.666;7.834;2023-01-26T03:37:43;23.27;;;12.20;;
15876;SDS011;8037;51.666;7.834;2023-01-26T03:40:09;21.30;;;10.00;;
15876;SDS011;8037;51.666;7.834;2023-01-26T03:42:54;42.90;;;15.43;;
15876;SDS011;8037;51.666;7.834;2023-01-26T03:45:39;26.03;;;12.70;;
15876;SDS011;8037;51.666;7.834;2023-01-26T03:48:24;33.77;;;15.30;;
15876;SDS011;8037;51.666;7.834;2023-01-26T03:51:08;31.40;;;13.67;;
15876;SDS011;8037;51.666;7.834;2023-01-26T03:53:53;22.97;;;11.93;;
15876;SDS011;8037;51.666;7.834;2023-01-26T03:56:38;36.73;;;13.50;;
15876;SDS011;8037;51.666;7.834;2023-01-26T03:59:04;30.90;;;15.23;;
15876;SDS011;8037;51.666;7.834;2023-01-26T04:01:37;26.53;;;14.07;;
15876;SDS011;8037;51.666;7.834;2023-01-26T04:04:05;25.07;;;11.70;;
15876;SDS011;8037;51.666;7.834;2023-01-26T04:06:51;25.30;;;12.67;;
15876;SDS011;8037;51.666;7.834;2023-01-26T04:09:36;22.93;;;10.70;;
15876;SDS011;8037;51.666;7.834;2023-01-26T04:12:03;21.17;;;10.87;;
15876;SDS011;8037;51.666;7.834;2023-01-26T04:14:29;16.40;;;11.93;;
15876;SDS011;8037;51.666;7.834;2023-01-26T04:17:14;37.33;;;11.70;;
15876;SDS011;8037;51.666;7.834;2023-01-26T04:19:59;22.90;;;11.20;;
15876;SDS011;8037;51.666;7.834;2023-01-26T04:22:44;30.27;;;14.50;;
15876;SDS011;8037;51.666;7.834;2023-01-26T04:25:11;44.53;;;12.00;;
15876;SDS011;8037;51.666;7.834;2023-01-26T04:27:39;23.80;;;11.13;;
15876;SDS011;8037;51.666;7.834;2023-01-26T04:30:06;21.63;;;10.53;;
15876;SDS011;8037;51.666;7.834;2023-01-26T04:32:33;18.67;;;12.07;;
15876;SDS011;8037;51.666;7.834;2023-01-26T04:34:59;24.77;;;13.80;;
15876;SDS011;8037;51.666;7.834;2023-01-26T04:37:25;22.17;;;13.13;;
15876;SDS011;8037;51.666;7.834;2023-01-26T04:39:50;26.57;;;13.53;;
15876;SDS011;8037;51.666;7.834;2023-01-26T04:42:16;33.13;;;15.83;;
15876;SDS011;8037;51.666;7.834;2023-01-26T04:44:42;26.70;;;13.33;;
15876;SDS011;8037;51.666;7.834;2023-01-26T04:47:08;27.73;;;13.13;;
15876;SDS011;8037;51.666;7.834;2023-01-26T04:49:34;24.80;;;13.50;;
15876;SDS011;8037;51.666;7.834;2023-01-26T04:52:00;23.53;;;12.47;;
15876;SDS011;8037;51.666;7.834;2023-01-26T04:54:26;40.53;;;16.00;;
15876;SDS011;8037;51.666;7.834;2023-01-26T04:56:52;28.33;;;14.10;;
15876;SDS011;8037;51.666;7.834;2023-01-26T04:59:18;36.53;;;16.47;;
15876;SDS011;8037;51.666;7.834;2023-01-26T05:01:44;28.97;;;14.80;;
15876;SDS011;8037;51.666;7.834;2023-01-26T05:04:10;36.23;;;14.40;;
15876;SDS011;8037;51.666;7.834;2023-01-26T05:06:39;30.13;;;12.93;;
15876;SDS011;8037;51.666;7.834;2023-01-26T05:09:06;40.70;;;14.40;;
15876;SDS011;8037;51.666;7.834;2023-01-26T05:11:31;37.93;;;14.93;;
15876;SDS011;8037;51.666;7.834;2023-01-26T05:13:57;29.83;;;12.47;;
15876;SDS011;8037;51.666;7.834;2023-01-26T05:16:23;40.40;;;14.27;;
15876;SDS011;8037;51.666;7.834;2023-01-26T05:18:49;31.80;;;14.40;;
15876;SDS011;8037;51.666;7.834;2023-01-26T05:21:24;29.67;;;14.80;;
15876;SDS011;8037;51.666;7.834;2023-01-26T05:24:19;31.70;;;15.47;;
15876;SDS011;8037;51.666;7.834;2023-01-26T05:26:45;42.90;;;15.87;;
15876;SDS011;8037;51.666;7.834;2023-01-26T05:29:11;38.13;;;17.60;;
15876;SDS011;8037;51.666;7.834;2023-01-26T05:31:36;37.60;;;16.53;;
15876;SDS011;8037;51.666;7.834;2023-01-26T05:34:02;38.50;;;17.13;;
15876;SDS011;8037;51.666;7.834;2023-01-26T05:36:28;40.37;;;18.10;;
15876;SDS011;8037;51.666;7.834;2023-01-26T05:38:54;52.63;;;17.17;;
15876;SDS011;8037;51.666;7.834;2023-01-26T05:41:20;33.73;;;14.10;;
15876;SDS011;8037;51.666;7.834;2023-01-26T05:43:46;31.70;;;14.70;;
15876;SDS011;8037;51.666;7.834;2023-01-26T05:46:11;30.80;;;14.43;;
15876;SDS011;8037;51.666;7.834;2023-01-26T05:48:37;44.17;;;18.17;;
15876;SDS011;8037;51.666;7.834;2023-01-26T05:51:03;34.10;;;13.90;;
15876;SDS011;8037;51.666;7.834;2023-01-26T05:53:29;32.73;;;14.77;;
15876;SDS011;8037;51.666;7.834;2023-01-26T05:55:55;29.50;;;16.37;;
15876;SDS011;8037;51.666;7.834;2023-01-26T05:58:21;48.13;;;16.50;;
15876;SDS011;8037;51.666;7.834;2023-01-26T06:00:47;31.13;;;11.93;;
15876;SDS011;8037;51.666;7.834;2023-01-26T06:03:13;31.03;;;15.33;;
15876;SDS011;8037;51.666;7.834;2023-01-26T06:05:39;31.67;;;13.70;;
15876;SDS011;8037;51.666;7.834;2023-01-26T06:08:06;28.27;;;12.90;;
15876;SDS011;8037;51.666;7.834;2023-01-26T06:10:32;36.07;;;17.27;;
15876;SDS011;8037;51.666;7.834;2023-01-26T06:12:58;29.93;;;14.73;;
15876;SDS011;8037;51.666;7.834;2023-01-26T06:15:24;27.73;;;13.83;;
15876;SDS011;8037;51.666;7.834;2023-01-26T06:17:50;33.67;;;15.90;;
15876;SDS011;8037;51.666;7.834;2023-01-26T06:20:16;35.77;;;14.60;;
15876;SDS011;8037;51.666;7.834;2023-01-26T06:22:42;38.67;;;13.83;;
15876;SDS011;8037;51.666;7.834;2023-01-26T06:25:08;25.13;;;12.30;;
15876;SDS011;8037;51.666;7.834;2023-01-26T06:27:33;34.93;;;15.40;;
15876;SDS011;8037;51.666;7.834;2023-01-26T06:30:00;37.50;;;14.50;;
15876;SDS011;8037;51.666;7.834;2023-01-26T06:32:25;29.73;;;12.80;;
15876;SDS011;8037;51.666;7.834;2023-01-26T06:34:52;23.83;;;13.77;;
15876;SDS011;8037;51.666;7.834;2023-01-26T06:37:18;35.03;;;13.27;;
15876;SDS011;8037;51.666;7.834;2023-01-26T06:39:44;22.87;;;12.57;;
15876;SDS011;8037;51.666;7.834;2023-01-26T06:42:10;28.77;;;12.57;;
15876;SDS011;8037;51.666;7.834;2023-01-26T06:44:36;25.10;;;12.03;;
15876;SDS011;8037;51.666;7.834;2023-01-26T06:47:03;30.27;;;15.77;;
15876;SDS011;8037;51.666;7.834;2023-01-26T06:49:30;22.37;;;10.50;;
15876;SDS011;8037;51.666;7.834;2023-01-26T06:52:03;22.60;;;11.90;;
15876;SDS011;8037;51.666;7.834;2023-01-26T06:54:43;25.47;;;13.13;;
15876;SDS011;8037;51.666;7.834;2023-01-26T06:57:09;30.83;;;15.37;;
15876;SDS011;8037;51.666;7.834;2023-01-26T06:59:35;23.03;;;13.47;;
15876;SDS011;8037;51.666;7.834;2023-01-26T07:02:01;28.80;;;12.13;;
15876;SDS011;8037;51.666;7.834;2023-01-26T07:04:27;21.10;;;10.80;;
15876;SDS011;8037;51.666;7.834;2023-01-26T07:06:53;24.97;;;11.73;;
15876;SDS011;8037;51.666;7.834;2023-01-26T07:09:18;27.53;;;13.83;;
15876;SDS011;8037;51.666;7.834;2023-01-26T07:11:44;31.17;;;13.00;;
15876;SDS011;8037;51.666;7.834;2023-01-26T07:14:10;27.13;;;13.00;;
15876;SDS011;8037;51.666;7.834;2023-01-26T07:16:36;17.80;;;10.43;;
15876;SDS011;8037;51.666;7.834;2023-01-26T07:19:02;30.20;;;14.63;;
15876;SDS011;8037;51.666;7.834;2023-01-26T07:21:28;23.13;;;12.93;;
15876;SDS011;8037;51.666;7.834;2023-01-26T07:23:54;26.87;;;13.20;;
15876;SDS011;8037;51.666;7.834;2023-01-26T07:26:20;29.77;;;14.10;;
15876;SDS011;8037;51.666;7.834;2023-01-26T07:28:46;35.53;;;10.37;;
15876;SDS011;8037;51.666;7.834;2023-01-26T07:31:12;23.43;;;12.70;;
15876;SDS011;8037;51.666;7.834;2023-01-26T07:33:38;24.10;;;12.63;;
15876;SDS011;8037;51.666;7.834;2023-01-26T07:36:04;25.07;;;11.17;;
15876;SDS011;8037;51.666;7.834;2023-01-26T07:38:31;20.17;;;10.83;;
15876;SDS011;8037;51.666;7.834;2023-01-26T07:40:57;30.17;;;12.27;;
15876;SDS011;8037;51.666;7.834;2023-01-26T07:43:22;33.07;;;13.80;;
15876;SDS011;8037;51.666;7.834;2023-01-26T07:45:49;21.70;;;10.70;;
15876;SDS011;8037;51.666;7.834;2023-01-26T07:48:17;33.70;;;11.50;;
15876;SDS011;8037;51.666;7.834;2023-01-26T07:50:44;29.47;;;12.50;;
15876;SDS011;8037;51.666;7.834;2023-01-26T07:53:11;24.20;;;11.77;;
15876;SDS011;8037;51.666;7.834;2023-01-26T07:55:39;27.20;;;11.47;;
15876;SDS011;8037;51.666;7.834;2023-01-26T07:58:07;20.53;;;11.50;;
15876;SDS011;8037;51.666;7.834;2023-01-26T08:00:33;29.63;;;15.07;;
15876;SDS011;8037;51.666;7.834;2023-01-26T08:02:59;27.20;;;12.07;;
15876;SDS011;8037;51.666;7.834;2023-01-26T08:05:25;23.47;;;12.23;;
15876;SDS011;8037;51.666;7.834;2023-01-26T08:07:51;19.53;;;12.30;;
15876;SDS011;8037;51.666;7.834;2023-01-26T08:10:17;22.53;;;11.43;;
15876;SDS011;8037;51.666;7.834;2023-01-26T08:12:43;28.70;;;14.67;;
15876;SDS011;8037;51.666;7.834;2023-01-26T08:15:09;26.30;;;11.77;;
15876;SDS011;8037;51.666;7.834;2023-01-26T08:17:35;26.03;;;10.80;;
15876;SDS011;8037;51.666;7.834;2023-01-26T08:20:02;25.17;;;11.67;;
15876;SDS011;8037;51.666;7.834;2023-01-26T08:22:28;19.13;;;11.30;;
15876;SDS011;8037;51.666;7.834;2023-01-26T08:24:53;20.50;;;10.73;;
15876;SDS011;8037;51.666;7.834;2023-01-26T08:27:19;33.50;;;14.70;;
15876;SDS011;8037;51.666;7.834;2023-01-26T08:29:47;31.33;;;13.03;;
15876;SDS011;8037;51.666;7.834;2023-01-26T08:32:13;22.03;;;12.20;;
15876;SDS011;8037;51.666;7.834;2023-01-26T08:34:38;23.10;;;14.27;;
15876;SDS011;8037;51.666;7.834;2023-01-26T08:37:04;25.53;;;9.73;;
15876;SDS011;8037;51.666;7.834;2023-01-26T08:39:30;27.00;;;14.20;;
15876;SDS011;8037;51.666;7.834;2023-01-26T08:41:56;28.83;;;14.80;;
15876;SDS011;8037;51.666;7.834;2023-01-26T08:44:22;27.50;;;15.33;;
15876;SDS011;8037;51.666;7.834;2023-01-26T08:46:47;28.97;;;15.17;;
15876;SDS011;8037;51.666;7.834;2023-01-26T08:49:13;26.77;;;13.43;;
15876;SDS011;8037;51.666;7.834;2023-01-26T08:51:40;25.37;;;13.10;;
15876;SDS011;8037;51.666;7.834;2023-01-26T08:54:06;28.90;;;13.90;;
15876;SDS011;8037;51.666;7.834;2023-01-26T08:56:32;27.20;;;14.00;;
15876;SDS011;8037;51.666;7.834;2023-01-26T08:58:58;25.33;;;13.93;;
15876;SDS011;8037;51.666;7.834;2023-01-26T09:01:24;31.50;;;13.53;;
15876;SDS011;8037;51.666;7.834;2023-01-26T09:03:50;20.40;;;10.50;;
15876;SDS011;8037;51.666;7.834;2023-01-26T09:06:17;29.23;;;12.27;;
15876;SDS011;8037;51.666;7.834;2023-01-26T09:08:43;30.03;;;12.90;;
15876;SDS011;8037;51.666;7.834;2023-01-26T09:11:09;28.63;;;11.87;;
15876;SDS011;8037;51.666;7.834;2023-01-26T09:13:35;18.67;;;11.77;;
15876;SDS011;8037;51.666;7.834;2023-01-26T09:16:11;26.67;;;12.30;;
15876;SDS011;8037;51.666;7.834;2023-01-26T09:18:40;30.47;;;13.70;;
15876;SDS011;8037;51.666;7.834;2023-01-26T09:21:07;33.93;;;15.77;;
15876;SDS011;8037;51.666;7.834;2023-01-26T09:23:34;23.13;;;13.80;;
15876;SDS011;8037;51.666;7.834;2023-01-26T09:25:59;19.30;;;11.20;;
15876;SDS011;8037;51.666;7.834;2023-01-26T09:28:26;26.40;;;12.00;;
15876;SDS011;8037;51.666;7.834;2023-01-26T09:30:52;25.00;;;12.20;;
15876;SDS011;8037;51.666;7.834;2023-01-26T09:33:17;24.07;;;11.93;;
15876;SDS011;8037;51.666;7.834;2023-01-26T09:35:45;24.67;;;12.20;;
15876;SDS011;8037;51.666;7.834;2023-01-26T09:38:11;23.43;;;12.90;;
15876;SDS011;8037;51.666;7.834;2023-01-26T09:40:54;21.73;;;11.07;;
15876;SDS011;8037;51.666;7.834;2023-01-26T09:44:06;14.43;;;9.40;;
15876;SDS011;8037;51.666;7.834;2023-01-26T09:51:32;15.67;;;10.17;;
15876;SDS011;8037;51.666;7.834;2023-01-26T09:54:09;19.60;;;10.17;;
15876;SDS011;8037;51.666;7.834;2023-01-26T09:56:45;18.93;;;11.43;;
15876;SDS011;8037;51.666;7.834;2023-01-26T10:02:00;23.03;;;11.37;;
15876;SDS011;8037;51.666;7.834;2023-01-26T10:04:35;20.47;;;10.57;;
15876;SDS011;8037;51.666;7.834;2023-01-26T10:07:07;19.67;;;10.53;;
15876;SDS011;8037;51.666;7.834;2023-01-26T10:09:36;16.37;;;9.30;;
15876;SDS011;8037;51.666;7.834;2023-01-26T10:12:05;31.00;;;11.87;;
15876;SDS011;8037;51.666;7.834;2023-01-26T10:14:36;27.47;;;12.07;;
15876;SDS011;8037;51.666;7.834;2023-01-26T10:17:25;20.90;;;10.87;;
15876;SDS011;8037;51.666;7.834;2023-01-26T10:19:59;23.17;;;9.37;;
15876;SDS011;8037;51.666;7.834;2023-01-26T10:22:42;23.60;;;11.57;;
15876;SDS011;8037;51.666;7.834;2023-01-26T10:25:13;23.27;;;11.23;;
15876;SDS011;8037;51.666;7.834;2023-01-26T10:27:44;24.07;;;10.33;;
15876;SDS011;8037;51.666;7.834;2023-01-26T10:30:13;31.53;;;12.07;;
15876;SDS011;8037;51.666;7.834;2023-01-26T10:32:41;21.50;;;11.40;;
15876;SDS011;8037;51.666;7.834;2023-01-26T10:35:14;21.73;;;9.67;;
15876;SDS011;8037;51.666;7.834;2023-01-26T10:37:42;19.73;;;12.30;;
15876;SDS011;8037;51.666;7.834;2023-01-26T10:40:08;18.50;;;9.90;;
15876;SDS011;8037;51.666;7.834;2023-01-26T10:42:34;20.73;;;8.77;;
15876;SDS011;8037;51.666;7.834;2023-01-26T10:45:06;15.67;;;8.60;;
15876;SDS011;8037;51.666;7.834;2023-01-26T10:50:30;15.83;;;9.27;;
15876;SDS011;8037;51.666;7.834;2023-01-26T10:52:57;16.53;;;7.80;;
15876;SDS011;8037;51.666;7.834;2023-01-26T10:55:24;19.40;;;10.07;;
15876;SDS011;8037;51.666;7.834;2023-01-26T10:57:50;23.47;;;10.90;;
15876;SDS011;8037;51.666;7.834;2023-01-26T11:00:24;18.10;;;10.37;;
15876;SDS011;8037;51.666;7.834;2023-01-26T11:02:53;19.70;;;11.10;;
15876;SDS011;8037;51.666;7.834;2023-01-26T11:05:23;15.63;;;7.63;;
15876;SDS011;8037;51.666;7.834;2023-01-26T11:07:55;19.87;;;10.53;;
15876;SDS011;8037;51.666;7.834;2023-01-26T11:11:20;19.37;;;8.93;;
15876;SDS011;8037;51.666;7.834;2023-01-26T11:13:17;16.53;;;9.50;;
15876;SDS011;8037;51.666;7.834;2023-01-26T11:15:45;18.57;;;9.10;;
15876;SDS011;8037;51.666;7.834;2023-01-26T11:20:54;22.47;;;8.33;;
15876;SDS011;8037;51.666;7.834;2023-01-26T11:23:27;25.07;;;10.43;;
15876;SDS011;8037;51.666;7.834;2023-01-26T11:29:09;12.47;;;7.13;;
15876;SDS011;8037;51.666;7.834;2023-01-26T11:40:00;12.67;;;7.47;;
15876;SDS011;8037;51.666;7.834;2023-01-26T11:46:06;17.53;;;9.23;;
15876;SDS011;8037;51.666;7.834;2023-01-26T11:54:26;15.00;;;8.30;;
15876;SDS011;8037;51.666;7.834;2023-01-26T11:59:21;12.47;;;8.27;;
15876;SDS011;8037;51.666;7.834;2023-01-26T12:04:44;13.87;;;6.50;;
15876;SDS011;8037;51.666;7.834;2023-01-26T12:07:12;9.70;;;5.90;;
15876;SDS011;8037;51.666;7.834;2023-01-26T12:09:45;11.57;;;6.17;;
15876;SDS011;8037;51.666;7.834;2023-01-26T12:12:14;11.03;;;5.43;;
15876;SDS011;8037;51.666;7.834;2023-01-26T12:14:56;6.67;;;4.40;;
15876;SDS011;8037;51.666;7.834;2023-01-26T12:20:22;8.10;;;4.13;;
15876;SDS011;8037;51.666;7.834;2023-01-26T12:23:26;7.00;;;4.87;;
15876;SDS011;8037;51.666;7.834;2023-01-26T12:29:12;9.97;;;6.20;;
15876;SDS011;8037;51.666;7.834;2023-01-26T12:34:12;9.20;;;5.70;;
15876;SDS011;8037;51.666;7.834;2023-01-26T12:36:43;8.13;;;4.70;;
15876;SDS011;8037;51.666;7.834;2023-01-26T12:39:26;9.73;;;4.30;;
15876;SDS011;8037;51.666;7.834;2023-01-26T12:42:05;7.00;;;4.70;;
15876;SDS011;8037;51.666;7.834;2023-01-26T12:44:39;4.60;;;4.03;;
15876;SDS011;8037;51.666;7.834;2023-01-26T12:47:21;6.10;;;3.33;;
15876;SDS011;8037;51.666;7.834;2023-01-26T12:52:37;3.83;;;3.43;;
15876;SDS011;8037;51.666;7.834;2023-01-26T12:57:52;5.77;;;3.10;;
15876;SDS011;8037;51.666;7.834;2023-01-26T13:00:27;10.40;;;6.87;;
15876;SDS011;8037;51.666;7.834;2023-01-26T13:03:03;11.97;;;5.70;;
15876;SDS011;8037;51.666;7.834;2023-01-26T13:05:53;6.93;;;6.23;;
15876;SDS011;8037;51.666;7.834;2023-01-26T13:08:40;8.80;;;4.93;;
15876;SDS011;8037;51.666;7.834;2023-01-26T13:27:29;6.07;;;3.30;;
15876;SDS011;8037;51.666;7.834;2023-01-26T13:35:37;3.80;;;3.50;;
15876;SDS011;8037;51.666;7.834;2023-01-26T13:38:14;3.27;;;3.03;;
15876;SDS011;8037;51.666;7.834;2023-01-26T13:40:44;2.80;;;2.60;;
15876;SDS011;8037;51.666;7.834;2023-01-26T13:48:54;4.23;;;3.77;;
15876;SDS011;8037;51.666;7.834;2023-01-26T13:51:24;5.80;;;3.87;;
15876;SDS011;8037;51.666;7.834;2023-01-26T13:54:05;5.67;;;4.80;;
15876;SDS011;8037;51.666;7.834;2023-01-26T13:59:14;8.37;;;4.80;;
15876;SDS011;8037;51.666;7.834;2023-01-26T14:01:46;5.00;;;3.53;;
15876;SDS011;8037;51.666;7.834;2023-01-26T14:04:17;5.70;;;4.30;;
15876;SDS011;8037;51.666;7.834;2023-01-26T14:09:29;3.40;;;3.10;;
15876;SDS011;8037;51.666;7.834;2023-01-26T14:12:03;2.90;;;2.70;;
15876;SDS011;8037;51.666;7.834;2023-01-26T14:14:31;2.97;;;2.43;;
15876;SDS011;8037;51.666;7.834;2023-01-26T14:16:59;4.60;;;2.67;;
15876;SDS011;8037;51.666;7.834;2023-01-26T14:19:26;3.47;;;2.27;;
15876;SDS011;8037;51.666;7.834;2023-01-26T14:21:54;4.30;;;3.20;;
15876;SDS011;8037;51.666;7.834;2023-01-26T14:24:25;2.60;;;2.30;;
15876;SDS011;8037;51.666;7.834;2023-01-26T14:26:59;3.60;;;2.93;;
15876;SDS011;8037;51.666;7.834;2023-01-26T14:29:27;4.30;;;2.67;;
15876;SDS011;8037;51.666;7.834;2023-01-26T14:31:54;5.47;;;3.43;;
15876;SDS011;8037;51.666;7.834;2023-01-26T14:34:22;5.37;;;2.53;;
15876;SDS011;8037;51.666;7.834;2023-01-26T14:39:38;2.10;;;2.00;;
15876;SDS011;8037;51.666;7.834;2023-01-26T14:42:07;4.20;;;2.83;;
15876;SDS011;8037;51.666;7.834;2023-01-26T14:44:40;3.17;;;2.87;;
15876;SDS011;8037;51.666;7.834;2023-01-26T14:52:34;5.10;;;4.00;;
15876;SDS011;8037;51.666;7.834;2023-01-26T14:55:05;5.07;;;3.27;;
15876;SDS011;8037;51.666;7.834;2023-01-26T14:57:37;6.30;;;3.37;;
15876;SDS011;8037;51.666;7.834;2023-01-26T15:00:03;3.80;;;2.20;;
15876;SDS011;8037;51.666;7.834;2023-01-26T15:02:53;9.93;;;3.20;;
15876;SDS011;8037;51.666;7.834;2023-01-26T15:05:21;4.40;;;2.63;;
15876;SDS011;8037;51.666;7.834;2023-01-26T15:08:01;6.43;;;4.20;;
15876;SDS011;8037;51.666;7.834;2023-01-26T15:10:37;5.87;;;5.27;;
15876;SDS011;8037;51.666;7.834;2023-01-26T15:13:23;28.60;;;15.10;;
15876;SDS011;8037;51.666;7.834;2023-01-26T15:16:04;194.50;;;97.07;;
15876;SDS011;8037;51.666;7.834;2023-01-26T15:18:35;92.53;;;50.50;;
15876;SDS011;8037;51.666;7.834;2023-01-26T15:21:11;37.93;;;18.23;;
15876;SDS011;8037;51.666;7.834;2023-01-26T15:23:43;29.63;;;15.83;;
15876;SDS011;8037;51.666;7.834;2023-01-26T15:28:41;10.90;;;7.67;;
15876;SDS011;8037;51.666;7.834;2023-01-26T15:31:06;21.57;;;7.80;;
15876;SDS011;8037;51.666;7.834;2023-01-26T15:36:19;23.80;;;5.07;;
15876;SDS011;8037;51.666;7.834;2023-01-26T15:38:47;10.00;;;4.63;;
15876;SDS011;8037;51.666;7.834;2023-01-26T15:41:13;13.53;;;4.93;;
15876;SDS011;8037;51.666;7.834;2023-01-26T15:43:39;22.97;;;5.77;;
15876;SDS011;8037;51.666;7.834;2023-01-26T15:46:06;14.60;;;7.37;;
15876;SDS011;8037;51.666;7.834;2023-01-26T15:48:33;16.97;;;7.87;;
15876;SDS011;8037;51.666;7.834;2023-01-26T15:50:59;13.33;;;8.80;;
15876;SDS011;8037;51.666;7.834;2023-01-26T15:53:25;12.77;;;7.27;;
15876;SDS011;8037;51.666;7.834;2023-01-26T15:55:51;17.73;;;8.30;;
15876;SDS011;8037;51.666;7.834;2023-01-26T15:58:19;20.00;;;12.90;;
15876;SDS011;8037;51.666;7.834;2023-01-26T16:00:46;18.50;;;10.27;;
15876;SDS011;8037;51.666;7.834;2023-01-26T16:03:13;16.73;;;8.50;;
15876;SDS011;8037;51.666;7.834;2023-01-26T16:05:40;9.40;;;7.07;;
15876;SDS011;8037;51.666;7.834;2023-01-26T16:08:23;13.47;;;6.40;;
15876;SDS011;8037;51.666;7.834;2023-01-26T16:10:49;12.67;;;6.40;;
15876;SDS011;8037;51.666;7.834;2023-01-26T16:13:16;15.63;;;6.37;;
15876;SDS011;8037;51.666;7.834;2023-01-26T16:15:46;14.80;;;6.43;;
15876;SDS011;8037;51.666;7.834;2023-01-26T16:18:13;13.93;;;6.20;;
15876;SDS011;8037;51.666;7.834;2023-01-26T16:20:39;14.20;;;6.50;;
15876;SDS011;8037;51.666;7.834;2023-01-26T16:23:20;22.70;;;7.93;;
15876;SDS011;8037;51.666;7.834;2023-01-26T16:25:47;18.07;;;7.83;;
15876;SDS011;8037;51.666;7.834;2023-01-26T16:28:13;16.97;;;8.80;;
15876;SDS011;8037;51.666;7.834;2023-01-26T16:30:43;26.33;;;8.60;;
15876;SDS011;8037;51.666;7.834;2023-01-26T16:33:31;13.30;;;7.73;;
15876;SDS011;8037;51.666;7.834;2023-01-26T16:35:56;21.53;;;8.57;;
15876;SDS011;8037;51.666;7.834;2023-01-26T16:38:21;18.63;;;7.93;;
15876;SDS011;8037;51.666;7.834;2023-01-26T16:40:47;15.90;;;7.50;;
15876;SDS011;8037;51.666;7.834;2023-01-26T16:43:15;37.27;;;8.17;;
15876;SDS011;8037;51.666;7.834;2023-01-26T16:45:43;21.27;;;8.37;;
15876;SDS011;8037;51.666;7.834;2023-01-26T16:48:11;22.10;;;10.10;;
15876;SDS011;8037;51.666;7.834;2023-01-26T16:50:38;18.10;;;8.07;;